sensor_id;sensor_type;location;lat;lon;timestamp;P1;durP1;ratioP1;P2;durP2;ratioP2
40669;SDS011;26355;45.528;9.234;2023-05-16T00:00:33;17.15;;;8.10;;
40669;SDS011;26355;45.528;9.234;2023-05-16T00:02:59;16.13;;;7.70;;
40669;SDS011;26355;45.528;9.234;2023-05-16T00:05:26;16.02;;;7.95;;
40669;SDS011;26355;45.528;9.234;2023-05-16T00:07:52;15.93;;;7.70;;
40669;SDS011;26355;45.528;9.234;2023-05-16T00:10:18;16.50;;;8.32;;
40669;SDS011;26355;45.528;9.234;2023-05-16T00:12:43;18.27;;;10.75;;
40669;SDS011;26355;45.528;9.234;2023-05-16T00:15:10;17.63;;;7.88;;
40669;SDS011;26355;45.528;9.234;2023-05-16T00:17:39;16.77;;;8.13;;
40669;SDS011;26355;45.528;9.234;2023-05-16T00:20:05;16.98;;;8.13;;
40669;SDS011;26355;45.528;9.234;2023-05-16T00:22:32;16.88;;;7.68;;
40669;SDS011;26355;45.528;9.234;2023-05-16T00:24:57;17.02;;;8.70;;
40669;SDS011;26355;45.528;9.234;2023-05-16T00:27:23;16.52;;;8.40;;
40669;SDS011;26355;45.528;9.234;2023-05-16T00:29:49;19.38;;;9.02;;
40669;SDS011;26355;45.528;9.234;2023-05-16T00:32:14;17.55;;;8.32;;
40669;SDS011;26355;45.528;9.234;2023-05-16T00:34:40;17.40;;;7.97;;
40669;SDS011;26355;45.528;9.234;2023-05-16T00:37:06;17.83;;;9.05;;
40669;SDS011;26355;45.528;9.234;2023-05-16T00:39:31;16.83;;;9.15;;
40669;SDS011;26355;45.528;9.234;2023-05-16T00:41:57;17.15;;;9.73;;
40669;SDS011;26355;45.528;9.234;2023-05-16T00:44:22;17.25;;;9.00;;
40669;SDS011;26355;45.528;9.234;2023-05-16T00:46:48;20.00;;;10.98;;
40669;SDS011;26355;45.528;9.234;2023-05-16T00:49:13;18.70;;;10.50;;
40669;SDS011;26355;45.528;9.234;2023-05-16T00:51:39;19.10;;;10.45;;
40669;SDS011;26355;45.528;9.234;2023-05-16T00:54:05;20.45;;;11.23;;
40669;SDS011;26355;45.528;9.234;2023-05-16T00:56:32;18.45;;;9.93;;
40669;SDS011;26355;45.528;9.234;2023-05-16T00:58:58;20.57;;;10.87;;
40669;SDS011;26355;45.528;9.234;2023-05-16T01:01:24;18.40;;;11.18;;
40669;SDS011;26355;45.528;9.234;2023-05-16T01:06:17;17.85;;;9.30;;
40669;SDS011;26355;45.528;9.234;2023-05-16T01:08:42;19.77;;;9.07;;
40669;SDS011;26355;45.528;9.234;2023-05-16T01:11:21;18.15;;;10.02;;
40669;SDS011;26355;45.528;9.234;2023-05-16T01:14:23;17.00;;;8.43;;
40669;SDS011;26355;45.528;9.234;2023-05-16T01:22:29;22.17;;;8.57;;
40669;SDS011;26355;45.528;9.234;2023-05-16T01:28:10;16.77;;;7.53;;
40669;SDS011;26355;45.528;9.234;2023-05-16T01:30:39;17.08;;;8.02;;
40669;SDS011;26355;45.528;9.234;2023-05-16T01:33:08;17.38;;;7.68;;
40669;SDS011;26355;45.528;9.234;2023-05-16T01:35:39;17.50;;;7.72;;
40669;SDS011;26355;45.528;9.234;2023-05-16T01:38:20;17.83;;;7.45;;
40669;SDS011;26355;45.528;9.234;2023-05-16T01:40:54;19.90;;;8.02;;
40669;SDS011;26355;45.528;9.234;2023-05-16T01:43:34;16.83;;;7.07;;
40669;SDS011;26355;45.528;9.234;2023-05-16T01:46:08;17.85;;;7.10;;
40669;SDS011;26355;45.528;9.234;2023-05-16T01:48:50;17.00;;;7.30;;
40669;SDS011;26355;45.528;9.234;2023-05-16T01:51:21;16.90;;;7.35;;
40669;SDS011;26355;45.528;9.234;2023-05-16T01:53:51;21.05;;;7.57;;
40669;SDS011;26355;45.528;9.234;2023-05-16T01:56:25;16.05;;;7.25;;
40669;SDS011;26355;45.528;9.234;2023-05-16T01:58:52;17.65;;;7.43;;
40669;SDS011;26355;45.528;9.234;2023-05-16T02:01:19;18.27;;;7.50;;
40669;SDS011;26355;45.528;9.234;2023-05-16T02:03:45;17.77;;;7.28;;
40669;SDS011;26355;45.528;9.234;2023-05-16T02:06:10;17.77;;;7.40;;
40669;SDS011;26355;45.528;9.234;2023-05-16T02:08:36;16.92;;;6.72;;
40669;SDS011;26355;45.528;9.234;2023-05-16T02:11:01;15.63;;;7.00;;
40669;SDS011;26355;45.528;9.234;2023-05-16T02:13:27;19.17;;;8.10;;
40669;SDS011;26355;45.528;9.234;2023-05-16T02:15:52;17.25;;;7.50;;
40669;SDS011;26355;45.528;9.234;2023-05-16T02:18:18;20.63;;;7.82;;
40669;SDS011;26355;45.528;9.234;2023-05-16T02:20:43;19.40;;;7.75;;
40669;SDS011;26355;45.528;9.234;2023-05-16T02:23:09;18.80;;;8.13;;
40669;SDS011;26355;45.528;9.234;2023-05-16T02:25:35;18.05;;;8.30;;
40669;SDS011;26355;45.528;9.234;2023-05-16T02:28:00;19.42;;;9.07;;
40669;SDS011;26355;45.528;9.234;2023-05-16T02:30:26;18.90;;;9.25;;
40669;SDS011;26355;45.528;9.234;2023-05-16T02:32:51;17.27;;;8.13;;
40669;SDS011;26355;45.528;9.234;2023-05-16T02:35:18;19.92;;;8.85;;
40669;SDS011;26355;45.528;9.234;2023-05-16T02:37:44;19.65;;;9.57;;
40669;SDS011;26355;45.528;9.234;2023-05-16T02:40:10;19.40;;;8.88;;
40669;SDS011;26355;45.528;9.234;2023-05-16T02:42:36;19.80;;;10.03;;
40669;SDS011;26355;45.528;9.234;2023-05-16T02:45:02;18.05;;;8.40;;
40669;SDS011;26355;45.528;9.234;2023-05-16T02:47:28;17.15;;;8.25;;
40669;SDS011;26355;45.528;9.234;2023-05-16T02:49:53;18.25;;;8.00;;
40669;SDS011;26355;45.528;9.234;2023-05-16T02:52:20;19.30;;;7.50;;
40669;SDS011;26355;45.528;9.234;2023-05-16T02:54:45;17.20;;;8.65;;
40669;SDS011;26355;45.528;9.234;2023-05-16T02:57:11;17.85;;;8.15;;
40669;SDS011;26355;45.528;9.234;2023-05-16T02:59:37;15.75;;;7.40;;
40669;SDS011;26355;45.528;9.234;2023-05-16T03:02:03;17.25;;;7.78;;
40669;SDS011;26355;45.528;9.234;2023-05-16T03:04:28;15.93;;;7.78;;
40669;SDS011;26355;45.528;9.234;2023-05-16T03:06:54;17.33;;;7.68;;
40669;SDS011;26355;45.528;9.234;2023-05-16T03:09:20;17.33;;;7.75;;
40669;SDS011;26355;45.528;9.234;2023-05-16T03:11:46;18.63;;;7.70;;
40669;SDS011;26355;45.528;9.234;2023-05-16T03:14:11;19.42;;;9.02;;
40669;SDS011;26355;45.528;9.234;2023-05-16T03:16:37;17.60;;;7.82;;
40669;SDS011;26355;45.528;9.234;2023-05-16T03:19:05;16.92;;;8.40;;
40669;SDS011;26355;45.528;9.234;2023-05-16T03:21:31;16.75;;;7.38;;
40669;SDS011;26355;45.528;9.234;2023-05-16T03:23:56;17.98;;;8.48;;
40669;SDS011;26355;45.528;9.234;2023-05-16T03:26:22;20.40;;;9.43;;
40669;SDS011;26355;45.528;9.234;2023-05-16T03:28:49;16.25;;;7.68;;
40669;SDS011;26355;45.528;9.234;2023-05-16T03:31:15;18.70;;;8.70;;
40669;SDS011;26355;45.528;9.234;2023-05-16T03:33:41;18.05;;;8.35;;
40669;SDS011;26355;45.528;9.234;2023-05-16T03:36:06;18.08;;;9.77;;
40669;SDS011;26355;45.528;9.234;2023-05-16T03:38:32;18.73;;;8.23;;
40669;SDS011;26355;45.528;9.234;2023-05-16T03:40:58;18.98;;;8.23;;
40669;SDS011;26355;45.528;9.234;2023-05-16T03:43:24;17.40;;;8.00;;
40669;SDS011;26355;45.528;9.234;2023-05-16T03:45:50;21.25;;;9.40;;
40669;SDS011;26355;45.528;9.234;2023-05-16T03:48:15;20.40;;;8.50;;
40669;SDS011;26355;45.528;9.234;2023-05-16T03:50:41;19.75;;;9.07;;
40669;SDS011;26355;45.528;9.234;2023-05-16T03:53:07;19.00;;;8.25;;
40669;SDS011;26355;45.528;9.234;2023-05-16T03:55:33;19.67;;;9.70;;
40669;SDS011;26355;45.528;9.234;2023-05-16T03:57:59;19.10;;;8.40;;
40669;SDS011;26355;45.528;9.234;2023-05-16T04:00:25;18.73;;;8.55;;
40669;SDS011;26355;45.528;9.234;2023-05-16T04:02:50;19.45;;;8.00;;
40669;SDS011;26355;45.528;9.234;2023-05-16T04:05:16;20.60;;;8.88;;
40669;SDS011;26355;45.528;9.234;2023-05-16T04:07:42;16.75;;;7.65;;
40669;SDS011;26355;45.528;9.234;2023-05-16T04:10:08;17.85;;;8.45;;
40669;SDS011;26355;45.528;9.234;2023-05-16T04:12:34;18.63;;;8.57;;
40669;SDS011;26355;45.528;9.234;2023-05-16T04:15:00;18.13;;;9.32;;
40669;SDS011;26355;45.528;9.234;2023-05-16T04:17:26;21.75;;;10.30;;
40669;SDS011;26355;45.528;9.234;2023-05-16T04:19:52;18.63;;;8.88;;
40669;SDS011;26355;45.528;9.234;2023-05-16T04:22:19;19.63;;;8.80;;
40669;SDS011;26355;45.528;9.234;2023-05-16T04:24:46;18.63;;;9.30;;
40669;SDS011;26355;45.528;9.234;2023-05-16T04:27:12;18.05;;;9.15;;
40669;SDS011;26355;45.528;9.234;2023-05-16T04:29:38;17.75;;;9.32;;
40669;SDS011;26355;45.528;9.234;2023-05-16T04:32:03;20.35;;;8.90;;
40669;SDS011;26355;45.528;9.234;2023-05-16T04:34:31;18.25;;;9.00;;
40669;SDS011;26355;45.528;9.234;2023-05-16T04:36:58;17.00;;;8.68;;
40669;SDS011;26355;45.528;9.234;2023-05-16T04:39:23;20.73;;;8.77;;
40669;SDS011;26355;45.528;9.234;2023-05-16T04:41:49;19.70;;;9.40;;
40669;SDS011;26355;45.528;9.234;2023-05-16T04:44:15;18.85;;;8.82;;
40669;SDS011;26355;45.528;9.234;2023-05-16T04:46:41;19.05;;;8.30;;
40669;SDS011;26355;45.528;9.234;2023-05-16T04:49:06;17.60;;;8.70;;
40669;SDS011;26355;45.528;9.234;2023-05-16T04:51:32;18.00;;;8.52;;
40669;SDS011;26355;45.528;9.234;2023-05-16T04:53:58;18.58;;;8.70;;
40669;SDS011;26355;45.528;9.234;2023-05-16T04:56:24;18.30;;;8.45;;
40669;SDS011;26355;45.528;9.234;2023-05-16T04:58:51;18.73;;;8.63;;
40669;SDS011;26355;45.528;9.234;2023-05-16T05:01:16;18.67;;;9.15;;
40669;SDS011;26355;45.528;9.234;2023-05-16T05:03:42;17.90;;;9.30;;
40669;SDS011;26355;45.528;9.234;2023-05-16T05:06:08;18.98;;;9.25;;
40669;SDS011;26355;45.528;9.234;2023-05-16T05:08:33;21.27;;;10.68;;
40669;SDS011;26355;45.528;9.234;2023-05-16T05:10:59;19.50;;;10.00;;
40669;SDS011;26355;45.528;9.234;2023-05-16T05:13:25;19.88;;;10.18;;
40669;SDS011;26355;45.528;9.234;2023-05-16T05:15:50;20.80;;;10.52;;
40669;SDS011;26355;45.528;9.234;2023-05-16T05:18:16;20.40;;;10.32;;
40669;SDS011;26355;45.528;9.234;2023-05-16T05:20:42;21.13;;;9.82;;
40669;SDS011;26355;45.528;9.234;2023-05-16T05:23:08;21.02;;;10.00;;
40669;SDS011;26355;45.528;9.234;2023-05-16T05:25:34;19.45;;;9.65;;
40669;SDS011;26355;45.528;9.234;2023-05-16T05:28:01;19.90;;;9.68;;
40669;SDS011;26355;45.528;9.234;2023-05-16T05:30:26;20.52;;;10.27;;
40669;SDS011;26355;45.528;9.234;2023-05-16T05:32:52;19.70;;;10.13;;
40669;SDS011;26355;45.528;9.234;2023-05-16T05:35:18;19.70;;;9.70;;
40669;SDS011;26355;45.528;9.234;2023-05-16T05:37:44;20.30;;;10.35;;
40669;SDS011;26355;45.528;9.234;2023-05-16T05:40:10;23.00;;;12.00;;
40669;SDS011;26355;45.528;9.234;2023-05-16T05:42:36;21.23;;;11.82;;
40669;SDS011;26355;45.528;9.234;2023-05-16T05:45:01;22.48;;;11.52;;
40669;SDS011;26355;45.528;9.234;2023-05-16T05:47:27;22.67;;;11.32;;
40669;SDS011;26355;45.528;9.234;2023-05-16T05:49:53;18.95;;;10.13;;
40669;SDS011;26355;45.528;9.234;2023-05-16T05:52:19;20.35;;;11.40;;
40669;SDS011;26355;45.528;9.234;2023-05-16T05:54:45;21.88;;;11.48;;
40669;SDS011;26355;45.528;9.234;2023-05-16T05:57:12;20.95;;;11.75;;
40669;SDS011;26355;45.528;9.234;2023-05-16T05:59:37;25.83;;;12.13;;
40669;SDS011;26355;45.528;9.234;2023-05-16T06:02:03;22.70;;;12.70;;
40669;SDS011;26355;45.528;9.234;2023-05-16T06:04:29;20.25;;;11.13;;
40669;SDS011;26355;45.528;9.234;2023-05-16T06:06:54;24.25;;;14.40;;
40669;SDS011;26355;45.528;9.234;2023-05-16T06:09:20;23.30;;;13.65;;
40669;SDS011;26355;45.528;9.234;2023-05-16T06:11:46;24.80;;;13.85;;
40669;SDS011;26355;45.528;9.234;2023-05-16T06:14:12;24.75;;;14.23;;
40669;SDS011;26355;45.528;9.234;2023-05-16T06:16:39;25.35;;;14.07;;
40669;SDS011;26355;45.528;9.234;2023-05-16T06:19:05;27.23;;;16.75;;
40669;SDS011;26355;45.528;9.234;2023-05-16T06:21:31;25.20;;;14.50;;
40669;SDS011;26355;45.528;9.234;2023-05-16T06:23:57;24.65;;;15.45;;
40669;SDS011;26355;45.528;9.234;2023-05-16T06:26:23;25.40;;;15.55;;
40669;SDS011;26355;45.528;9.234;2023-05-16T06:28:48;34.50;;;16.30;;
40669;SDS011;26355;45.528;9.234;2023-05-16T06:31:14;25.67;;;16.10;;
40669;SDS011;26355;45.528;9.234;2023-05-16T06:33:40;23.33;;;14.82;;
40669;SDS011;26355;45.528;9.234;2023-05-16T06:36:05;25.38;;;15.52;;
40669;SDS011;26355;45.528;9.234;2023-05-16T06:38:31;25.75;;;15.93;;
40669;SDS011;26355;45.528;9.234;2023-05-16T06:40:57;23.88;;;16.27;;
40669;SDS011;26355;45.528;9.234;2023-05-16T06:43:22;26.73;;;16.67;;
40669;SDS011;26355;45.528;9.234;2023-05-16T06:45:48;23.88;;;14.80;;
40669;SDS011;26355;45.528;9.234;2023-05-16T06:48:14;24.27;;;13.98;;
40669;SDS011;26355;45.528;9.234;2023-05-16T06:50:39;28.67;;;14.35;;
40669;SDS011;26355;45.528;9.234;2023-05-16T06:53:05;24.33;;;12.77;;
40669;SDS011;26355;45.528;9.234;2023-05-16T06:55:31;27.98;;;13.82;;
40669;SDS011;26355;45.528;9.234;2023-05-16T06:57:57;23.83;;;14.68;;
40669;SDS011;26355;45.528;9.234;2023-05-16T07:00:23;20.83;;;12.18;;
40669;SDS011;26355;45.528;9.234;2023-05-16T07:02:48;24.15;;;12.05;;
40669;SDS011;26355;45.528;9.234;2023-05-16T07:05:14;20.25;;;8.80;;
40669;SDS011;26355;45.528;9.234;2023-05-16T07:07:40;21.15;;;7.88;;
40669;SDS011;26355;45.528;9.234;2023-05-16T07:10:05;19.27;;;7.30;;
40669;SDS011;26355;45.528;9.234;2023-05-16T07:12:31;20.63;;;7.40;;
40669;SDS011;26355;45.528;9.234;2023-05-16T07:14:57;17.30;;;6.90;;
40669;SDS011;26355;45.528;9.234;2023-05-16T07:17:22;16.17;;;6.95;;
40669;SDS011;26355;45.528;9.234;2023-05-16T07:19:48;24.30;;;8.93;;
40669;SDS011;26355;45.528;9.234;2023-05-16T07:22:14;17.02;;;6.13;;
40669;SDS011;26355;45.528;9.234;2023-05-16T07:24:40;25.35;;;7.13;;
40669;SDS011;26355;45.528;9.234;2023-05-16T07:27:05;20.13;;;7.20;;
40669;SDS011;26355;45.528;9.234;2023-05-16T07:29:31;18.90;;;7.50;;
40669;SDS011;26355;45.528;9.234;2023-05-16T07:31:57;15.32;;;6.32;;
40669;SDS011;26355;45.528;9.234;2023-05-16T07:34:23;16.27;;;5.78;;
40669;SDS011;26355;45.528;9.234;2023-05-16T07:36:48;14.13;;;5.43;;
40669;SDS011;26355;45.528;9.234;2023-05-16T07:39:14;14.20;;;5.13;;
40669;SDS011;26355;45.528;9.234;2023-05-16T07:41:40;19.05;;;5.40;;
40669;SDS011;26355;45.528;9.234;2023-05-16T07:44:05;17.05;;;5.38;;
40669;SDS011;26355;45.528;9.234;2023-05-16T07:46:31;15.00;;;6.07;;
40669;SDS011;26355;45.528;9.234;2023-05-16T07:48:56;16.30;;;7.15;;
40669;SDS011;26355;45.528;9.234;2023-05-16T07:51:22;16.83;;;7.22;;
40669;SDS011;26355;45.528;9.234;2023-05-16T07:53:47;17.85;;;7.63;;
40669;SDS011;26355;45.528;9.234;2023-05-16T07:56:13;19.40;;;7.95;;
40669;SDS011;26355;45.528;9.234;2023-05-16T07:58:40;15.32;;;7.35;;
40669;SDS011;26355;45.528;9.234;2023-05-16T08:01:05;17.02;;;8.30;;
40669;SDS011;26355;45.528;9.234;2023-05-16T08:03:31;19.58;;;9.02;;
40669;SDS011;26355;45.528;9.234;2023-05-16T08:05:57;18.08;;;9.00;;
40669;SDS011;26355;45.528;9.234;2023-05-16T08:08:22;19.13;;;9.20;;
40669;SDS011;26355;45.528;9.234;2023-05-16T08:10:48;18.95;;;9.10;;
40669;SDS011;26355;45.528;9.234;2023-05-16T08:13:13;18.85;;;9.50;;
40669;SDS011;26355;45.528;9.234;2023-05-16T08:15:39;19.95;;;10.18;;
40669;SDS011;26355;45.528;9.234;2023-05-16T08:18:05;19.85;;;10.85;;
40669;SDS011;26355;45.528;9.234;2023-05-16T08:20:40;19.08;;;10.00;;
40669;SDS011;26355;45.528;9.234;2023-05-16T08:23:06;20.48;;;11.70;;
40669;SDS011;26355;45.528;9.234;2023-05-16T08:25:35;21.52;;;11.43;;
40669;SDS011;26355;45.528;9.234;2023-05-16T08:28:00;20.75;;;10.77;;
40669;SDS011;26355;45.528;9.234;2023-05-16T08:30:29;19.88;;;11.93;;
40669;SDS011;26355;45.528;9.234;2023-05-16T08:32:55;20.70;;;11.75;;
40669;SDS011;26355;45.528;9.234;2023-05-16T08:35:20;20.45;;;11.68;;
40669;SDS011;26355;45.528;9.234;2023-05-16T08:37:46;19.08;;;12.18;;
40669;SDS011;26355;45.528;9.234;2023-05-16T08:40:11;19.27;;;11.43;;
40669;SDS011;26355;45.528;9.234;2023-05-16T08:42:39;21.50;;;11.88;;
40669;SDS011;26355;45.528;9.234;2023-05-16T08:45:07;20.95;;;11.45;;
40669;SDS011;26355;45.528;9.234;2023-05-16T08:47:33;18.88;;;10.95;;
40669;SDS011;26355;45.528;9.234;2023-05-16T08:50:05;20.52;;;10.15;;
40669;SDS011;26355;45.528;9.234;2023-05-16T08:52:33;19.80;;;9.55;;
40669;SDS011;26355;45.528;9.234;2023-05-16T08:55:02;16.88;;;7.45;;
40669;SDS011;26355;45.528;9.234;2023-05-16T08:57:32;16.33;;;6.43;;
40669;SDS011;26355;45.528;9.234;2023-05-16T08:59:58;17.67;;;5.85;;
40669;SDS011;26355;45.528;9.234;2023-05-16T09:02:24;15.27;;;5.25;;
40669;SDS011;26355;45.528;9.234;2023-05-16T09:04:51;21.15;;;7.97;;
40669;SDS011;26355;45.528;9.234;2023-05-16T09:07:18;16.35;;;5.30;;
40669;SDS011;26355;45.528;9.234;2023-05-16T09:09:44;15.70;;;4.35;;
40669;SDS011;26355;45.528;9.234;2023-05-16T09:12:09;14.85;;;4.95;;
40669;SDS011;26355;45.528;9.234;2023-05-16T09:14:36;14.23;;;4.80;;
40669;SDS011;26355;45.528;9.234;2023-05-16T09:17:02;15.48;;;4.40;;
40669;SDS011;26355;45.528;9.234;2023-05-16T09:19:38;8.25;;;2.85;;
40669;SDS011;26355;45.528;9.234;2023-05-16T09:25:20;11.87;;;3.23;;
40669;SDS011;26355;45.528;9.234;2023-05-16T09:27:47;10.73;;;2.72;;
40669;SDS011;26355;45.528;9.234;2023-05-16T09:30:17;9.45;;;3.00;;
40669;SDS011;26355;45.528;9.234;2023-05-16T09:32:55;12.15;;;3.30;;
40669;SDS011;26355;45.528;9.234;2023-05-16T09:35:21;8.93;;;3.53;;
40669;SDS011;26355;45.528;9.234;2023-05-16T09:37:48;8.18;;;2.50;;
40669;SDS011;26355;45.528;9.234;2023-05-16T09:40:19;10.57;;;3.03;;
40669;SDS011;26355;45.528;9.234;2023-05-16T09:43:22;12.25;;;3.10;;
40669;SDS011;26355;45.528;9.234;2023-05-16T09:45:42;16.35;;;3.17;;
40669;SDS011;26355;45.528;9.234;2023-05-16T09:48:10;17.95;;;3.50;;
40669;SDS011;26355;45.528;9.234;2023-05-16T09:50:39;13.30;;;3.00;;
40669;SDS011;26355;45.528;9.234;2023-05-16T09:53:06;9.40;;;2.40;;
40669;SDS011;26355;45.528;9.234;2023-05-16T09:55:32;8.40;;;2.55;;
40669;SDS011;26355;45.528;9.234;2023-05-16T09:57:58;9.15;;;2.53;;
40669;SDS011;26355;45.528;9.234;2023-05-16T10:00:31;9.50;;;2.83;;
40669;SDS011;26355;45.528;9.234;2023-05-16T10:02:58;11.98;;;2.47;;
40669;SDS011;26355;45.528;9.234;2023-05-16T10:05:25;7.30;;;2.45;;
40669;SDS011;26355;45.528;9.234;2023-05-16T10:07:53;9.27;;;2.83;;
40669;SDS011;26355;45.528;9.234;2023-05-16T10:10:20;10.25;;;2.70;;
40669;SDS011;26355;45.528;9.234;2023-05-16T10:12:56;11.98;;;2.67;;
40669;SDS011;26355;45.528;9.234;2023-05-16T10:15:25;14.93;;;3.50;;
40669;SDS011;26355;45.528;9.234;2023-05-16T10:17:52;8.38;;;2.45;;
40669;SDS011;26355;45.528;9.234;2023-05-16T10:20:23;9.52;;;3.00;;
40669;SDS011;26355;45.528;9.234;2023-05-16T10:22:50;9.95;;;2.80;;
40669;SDS011;26355;45.528;9.234;2023-05-16T10:25:28;10.45;;;3.10;;
40669;SDS011;26355;45.528;9.234;2023-05-16T10:27:58;8.55;;;3.00;;
40669;SDS011;26355;45.528;9.234;2023-05-16T10:30:24;12.32;;;3.35;;
40669;SDS011;26355;45.528;9.234;2023-05-16T10:32:50;9.85;;;3.10;;
40669;SDS011;26355;45.528;9.234;2023-05-16T10:35:17;16.67;;;4.38;;
40669;SDS011;26355;45.528;9.234;2023-05-16T10:37:44;17.73;;;4.15;;
40669;SDS011;26355;45.528;9.234;2023-05-16T10:40:11;11.38;;;3.65;;
40669;SDS011;26355;45.528;9.234;2023-05-16T10:42:37;11.38;;;3.47;;
40669;SDS011;26355;45.528;9.234;2023-05-16T10:45:15;8.73;;;3.05;;
40669;SDS011;26355;45.528;9.234;2023-05-16T10:47:59;12.05;;;3.10;;
40669;SDS011;26355;45.528;9.234;2023-05-16T10:53:12;11.63;;;3.40;;
40669;SDS011;26355;45.528;9.234;2023-05-16T10:55:38;11.95;;;3.70;;
40669;SDS011;26355;45.528;9.234;2023-05-16T10:58:04;11.40;;;3.58;;
40669;SDS011;26355;45.528;9.234;2023-05-16T11:00:30;14.05;;;3.78;;
40669;SDS011;26355;45.528;9.234;2023-05-16T11:03:05;14.02;;;4.20;;
40669;SDS011;26355;45.528;9.234;2023-05-16T11:05:43;12.77;;;3.75;;
40669;SDS011;26355;45.528;9.234;2023-05-16T11:08:16;10.75;;;3.72;;
40669;SDS011;26355;45.528;9.234;2023-05-16T11:10:41;11.15;;;3.20;;
40669;SDS011;26355;45.528;9.234;2023-05-16T11:13:07;13.85;;;3.90;;
40669;SDS011;26355;45.528;9.234;2023-05-16T11:15:32;10.98;;;3.47;;
40669;SDS011;26355;45.528;9.234;2023-05-16T11:18:14;11.85;;;3.83;;
40669;SDS011;26355;45.528;9.234;2023-05-16T11:20:40;12.00;;;3.40;;
40669;SDS011;26355;45.528;9.234;2023-05-16T11:25:46;11.65;;;3.35;;
40669;SDS011;26355;45.528;9.234;2023-05-16T11:28:14;9.25;;;3.13;;
40669;SDS011;26355;45.528;9.234;2023-05-16T11:30:45;10.63;;;3.40;;
40669;SDS011;26355;45.528;9.234;2023-05-16T11:33:16;12.10;;;3.85;;
40669;SDS011;26355;45.528;9.234;2023-05-16T11:35:43;11.60;;;3.97;;
40669;SDS011;26355;45.528;9.234;2023-05-16T11:38:24;10.18;;;3.38;;
40669;SDS011;26355;45.528;9.234;2023-05-16T11:40:49;13.70;;;4.35;;
40669;SDS011;26355;45.528;9.234;2023-05-16T11:43:18;9.70;;;3.53;;
40669;SDS011;26355;45.528;9.234;2023-05-16T11:45:43;12.50;;;4.32;;
40669;SDS011;26355;45.528;9.234;2023-05-16T11:48:09;11.82;;;4.03;;
40669;SDS011;26355;45.528;9.234;2023-05-16T11:50:35;13.05;;;4.05;;
40669;SDS011;26355;45.528;9.234;2023-05-16T11:53:01;12.35;;;3.90;;
40669;SDS011;26355;45.528;9.234;2023-05-16T11:55:28;10.90;;;3.95;;
40669;SDS011;26355;45.528;9.234;2023-05-16T11:57:55;15.70;;;4.55;;
40669;SDS011;26355;45.528;9.234;2023-05-16T12:00:22;12.27;;;3.90;;
40669;SDS011;26355;45.528;9.234;2023-05-16T12:02:50;11.43;;;4.30;;
40669;SDS011;26355;45.528;9.234;2023-05-16T12:05:17;10.38;;;4.30;;
40669;SDS011;26355;45.528;9.234;2023-05-16T12:07:45;9.63;;;3.70;;
40669;SDS011;26355;45.528;9.234;2023-05-16T12:10:14;13.35;;;4.10;;
40669;SDS011;26355;45.528;9.234;2023-05-16T12:12:44;11.35;;;3.72;;
40669;SDS011;26355;45.528;9.234;2023-05-16T12:15:11;11.30;;;3.67;;
40669;SDS011;26355;45.528;9.234;2023-05-16T12:17:39;11.50;;;3.67;;
40669;SDS011;26355;45.528;9.234;2023-05-16T12:20:05;11.18;;;4.30;;
40669;SDS011;26355;45.528;9.234;2023-05-16T12:22:44;11.07;;;4.00;;
40669;SDS011;26355;45.528;9.234;2023-05-16T12:25:30;12.73;;;4.10;;
40669;SDS011;26355;45.528;9.234;2023-05-16T12:27:57;10.68;;;3.90;;
40669;SDS011;26355;45.528;9.234;2023-05-16T12:30:27;12.05;;;3.92;;
40669;SDS011;26355;45.528;9.234;2023-05-16T12:32:54;12.23;;;4.22;;
40669;SDS011;26355;45.528;9.234;2023-05-16T12:35:31;12.02;;;4.25;;
40669;SDS011;26355;45.528;9.234;2023-05-16T12:37:57;12.00;;;3.95;;
40669;SDS011;26355;45.528;9.234;2023-05-16T12:40:30;13.55;;;4.30;;
40669;SDS011;26355;45.528;9.234;2023-05-16T12:42:56;13.07;;;4.68;;
40669;SDS011;26355;45.528;9.234;2023-05-16T12:45:22;14.43;;;4.97;;
40669;SDS011;26355;45.528;9.234;2023-05-16T12:47:48;14.20;;;4.90;;
40669;SDS011;26355;45.528;9.234;2023-05-16T12:50:15;14.47;;;5.13;;
40669;SDS011;26355;45.528;9.234;2023-05-16T12:52:57;15.60;;;4.47;;
40669;SDS011;26355;45.528;9.234;2023-05-16T12:55:24;12.57;;;4.75;;
40669;SDS011;26355;45.528;9.234;2023-05-16T12:57:50;14.00;;;5.00;;
40669;SDS011;26355;45.528;9.234;2023-05-16T13:00:16;14.77;;;5.00;;
40669;SDS011;26355;45.528;9.234;2023-05-16T13:02:43;13.27;;;4.28;;
40669;SDS011;26355;45.528;9.234;2023-05-16T13:05:10;12.45;;;4.10;;
40669;SDS011;26355;45.528;9.234;2023-05-16T13:07:36;11.63;;;4.10;;
40669;SDS011;26355;45.528;9.234;2023-05-16T13:10:04;12.32;;;4.43;;
40669;SDS011;26355;45.528;9.234;2023-05-16T13:12:31;11.15;;;4.15;;
40669;SDS011;26355;45.528;9.234;2023-05-16T13:14:57;15.20;;;4.80;;
40669;SDS011;26355;45.528;9.234;2023-05-16T13:17:22;14.43;;;5.03;;
40669;SDS011;26355;45.528;9.234;2023-05-16T13:19:48;16.38;;;4.95;;
40669;SDS011;26355;45.528;9.234;2023-05-16T13:22:15;17.17;;;5.22;;
40669;SDS011;26355;45.528;9.234;2023-05-16T13:24:40;15.32;;;4.53;;
40669;SDS011;26355;45.528;9.234;2023-05-16T13:27:06;13.98;;;5.10;;
40669;SDS011;26355;45.528;9.234;2023-05-16T13:29:31;14.45;;;4.95;;
40669;SDS011;26355;45.528;9.234;2023-05-16T13:31:57;13.98;;;5.05;;
40669;SDS011;26355;45.528;9.234;2023-05-16T13:34:23;12.57;;;4.53;;
40669;SDS011;26355;45.528;9.234;2023-05-16T13:37:02;14.93;;;4.90;;
40669;SDS011;26355;45.528;9.234;2023-05-16T13:39:28;15.15;;;4.82;;
40669;SDS011;26355;45.528;9.234;2023-05-16T13:41:54;13.38;;;5.00;;
40669;SDS011;26355;45.528;9.234;2023-05-16T13:44:19;14.50;;;4.97;;
40669;SDS011;26355;45.528;9.234;2023-05-16T13:46:46;13.97;;;5.07;;
40669;SDS011;26355;45.528;9.234;2023-05-16T13:49:11;13.80;;;4.55;;
40669;SDS011;26355;45.528;9.234;2023-05-16T13:51:37;15.77;;;4.90;;
40669;SDS011;26355;45.528;9.234;2023-05-16T13:54:06;13.70;;;5.07;;
40669;SDS011;26355;45.528;9.234;2023-05-16T13:56:32;12.85;;;5.03;;
40669;SDS011;26355;45.528;9.234;2023-05-16T13:58:57;14.60;;;5.22;;
40669;SDS011;26355;45.528;9.234;2023-05-16T14:01:23;13.70;;;5.30;;
40669;SDS011;26355;45.528;9.234;2023-05-16T14:03:49;15.57;;;5.50;;
40669;SDS011;26355;45.528;9.234;2023-05-16T14:06:17;14.38;;;5.65;;
40669;SDS011;26355;45.528;9.234;2023-05-16T14:08:43;14.60;;;5.55;;
40669;SDS011;26355;45.528;9.234;2023-05-16T14:11:09;15.60;;;5.68;;
40669;SDS011;26355;45.528;9.234;2023-05-16T14:13:34;16.73;;;5.97;;
40669;SDS011;26355;45.528;9.234;2023-05-16T14:16:00;16.15;;;5.93;;
40669;SDS011;26355;45.528;9.234;2023-05-16T14:18:26;14.05;;;5.90;;
40669;SDS011;26355;45.528;9.234;2023-05-16T14:20:51;15.88;;;5.72;;
40669;SDS011;26355;45.528;9.234;2023-05-16T14:23:20;15.95;;;6.28;;
40669;SDS011;26355;45.528;9.234;2023-05-16T14:25:45;14.10;;;5.35;;
40669;SDS011;26355;45.528;9.234;2023-05-16T14:28:11;13.95;;;4.97;;
40669;SDS011;26355;45.528;9.234;2023-05-16T14:30:36;14.82;;;5.18;;
40669;SDS011;26355;45.528;9.234;2023-05-16T14:33:02;14.50;;;5.38;;
40669;SDS011;26355;45.528;9.234;2023-05-16T14:35:28;13.15;;;5.00;;
40669;SDS011;26355;45.528;9.234;2023-05-16T14:37:53;11.93;;;4.53;;
40669;SDS011;26355;45.528;9.234;2023-05-16T14:40:19;12.88;;;4.60;;
40669;SDS011;26355;45.528;9.234;2023-05-16T14:42:45;13.10;;;5.05;;
40669;SDS011;26355;45.528;9.234;2023-05-16T14:45:11;10.93;;;4.60;;
40669;SDS011;26355;45.528;9.234;2023-05-16T14:47:37;13.52;;;4.80;;
40669;SDS011;26355;45.528;9.234;2023-05-16T14:50:02;13.85;;;4.65;;
40669;SDS011;26355;45.528;9.234;2023-05-16T14:52:28;12.18;;;4.75;;